Ana Sayfa
METAR-TAF:

METAR-TAF

Havaalanları :

Moroni, Komor Adaları

Enlem: 11-32S, Boylam: 043-16E, yükseklik: 29 m

Güncel hava durumu gözlemi

Rapor saat 01:00 UTC de 1 saat ve 11 dakika önce yapıldı.
Sıcaklık
Basınç

METAR: FMCH 260100Z METAR

Saat: 05:11 (02:11 UTC)

Tahmin

Rapor saat 17:00 UTC de 9 saat ve 11 dakika önce yapıldı.
Ayın 25'si saat 18 UTC'den ayın 26'si saat 24 UTC'ye kadar geçerli Tahmin
Rüzgar doğudan 3 kt
Görüş mesafesi 10 km veya daha fazla
2000 ft yükseklikte az bulutlu
2500 ft yükseklikte parçalı bulutlu
Dönüşüyor
ayın 26'si saat 04 UTC'den ayın 26'si saat 06 UTC'ye kadar
Rüzgar güneydan 10 kt
Dönüşüyor
ayın 26'si saat 15 UTC'den ayın 26'si saat 17 UTC'ye kadar
Rüzgar doğu/güneydoğudan 3 kt

TAF: FMCH 251700Z 2518/2624 10003KT 9999 FEW020 SCT025 BECMG 2604/2606 19010KT BECMG 2615/2617 11003KT

4.000'den fazla havaalanı için hava durumu gözlemleri ve tahminleri (METAR ve TAF raporları).

Kullanılabilir istasyonlar harita üzerinde sarı ve kırmızı noktalarla gösterilir.

İstasyonun adını görmek için fareyi noktanın üzerinde gezdirin.

Sonrasında hava gözlem ve tahminlerini görmek için tıklayın.

Haritayı değiştirmek için: yaklaştırmak için siyah artı işaretli yeşil düğmeye ve uzaklaştırmak için de eksi işaretli düğmeye hızla tıklayın; bitişik haritalar için yeşil okları kullanın.


METAR-TAF: